Time,TemperatureF,DewpointF,PressureIn,WindDirection,WindDirectionDegrees,WindSpeedMPH,WindSpeedGustMPH,Humidity,HourlyPrecipIn,Conditions,Clouds,dailyrainin,SolarRadiationWatts/m^2,SoftwareType,DateUTC
2013-02-18 00:01:00,28.0,20.0,-100.00,East,95,0.0,0.0,73,0.00,,,0.06,0.000000,,2013-02-18 08:01:00,
2013-02-18 00:11:00,28.0,20.0,-100.00,East,95,0.0,0.0,73,0.00,,,0.06,0.000000,,2013-02-18 08:11:00,
2013-02-18 00:42:00,27.0,21.0,-100.00,East,88,0.0,0.0,79,0.00,,,0.06,0.000000,,2013-02-18 08:42:00,
2013-02-18 00:52:00,27.0,21.0,-100.00,East,88,0.0,0.0,79,0.00,,,0.06,0.000000,,2013-02-18 08:52:00,
2013-02-18 01:02:00,27.0,21.0,-100.00,East,88,0.0,0.0,79,0.00,,,0.06,0.000000,,2013-02-18 09:02:00,
2013-02-18 01:11:00,27.0,21.0,-100.00,East,88,0.0,0.0,79,0.00,,,0.06,0.000000,,2013-02-18 09:11:00,
2013-02-18 01:42:00,27.0,20.0,-100.00,ESE,121,0.0,0.0,76,0.00,,,0.06,0.000000,,2013-02-18 09:42:00,
2013-02-18 01:52:00,27.0,20.0,-100.00,ESE,121,0.0,0.0,76,0.00,,,0.06,0.000000,,2013-02-18 09:52:00,
2013-02-18 02:01:00,27.0,20.0,-100.00,ESE,121,0.0,0.0,76,0.00,,,0.06,0.000000,,2013-02-18 10:01:00,
2013-02-18 02:11:00,27.0,20.0,-100.00,ESE,121,0.0,0.0,76,0.00,,,0.06,0.000000,,2013-02-18 10:11:00,
2013-02-18 02:42:00,27.0,21.0,-100.00,ESE,117,0.0,0.0,78,0.00,,,-99.99,0.000000,,2013-02-18 10:42:00,
2013-02-18 02:52:00,27.0,21.0,-100.00,ESE,117,0.0,0.0,78,0.00,,,-99.99,0.000000,,2013-02-18 10:52:00,
2013-02-18 03:01:00,27.0,21.0,-100.00,ESE,117,0.0,0.0,78,0.00,,,-99.99,0.000000,,2013-02-18 11:01:00,
2013-02-18 03:11:00,27.0,21.0,-100.00,ESE,117,0.0,0.0,78,0.00,,,-99.99,0.000000,,2013-02-18 11:11:00,
2013-02-18 03:43:00,28.0,21.0,-100.00,East,100,0.0,0.0,74,0.00,,,0.06,0.000000,,2013-02-18 11:43:00,
2013-02-18 03:53:00,28.0,21.0,-100.00,East,100,0.0,0.0,74,0.00,,,0.06,0.000000,,2013-02-18 11:53:00,
2013-02-18 04:02:00,28.0,21.0,-100.00,East,100,0.0,0.0,74,0.00,,,0.06,0.000000,,2013-02-18 12:02:00,
2013-02-18 04:11:00,28.0,21.0,-100.00,East,100,0.0,0.0,74,0.00,,,0.06,0.000000,,2013-02-18 12:11:00,
2013-02-18 04:42:00,29.0,21.0,-100.00,ENE,67,0.0,0.0,73,0.00,,,0.06,0.000000,,2013-02-18 12:42:00,
2013-02-18 04:53:00,29.0,21.0,-100.00,ENE,67,0.0,0.0,73,0.00,,,0.06,0.000000,,2013-02-18 12:53:00,
2013-02-18 05:02:00,29.0,21.0,-100.00,ENE,67,0.0,0.0,73,0.00,,,0.06,0.000000,,2013-02-18 13:02:00,
2013-02-18 05:11:00,29.0,21.0,-100.00,ENE,67,0.0,0.0,73,0.00,,,0.06,0.000000,,2013-02-18 13:11:00,
2013-02-18 05:42:00,27.0,21.0,-100.00,East,87,0.0,0.0,77,0.00,,,0.06,0.000000,,2013-02-18 13:42:00,
2013-02-18 05:53:00,27.0,21.0,-100.00,East,87,0.0,0.0,77,0.00,,,0.06,0.000000,,2013-02-18 13:53:00,
2013-02-18 06:02:00,27.0,21.0,-100.00,East,87,0.0,0.0,77,0.00,,,0.06,0.000000,,2013-02-18 14:02:00,
2013-02-18 06:11:00,27.0,21.0,-100.00,East,87,0.0,0.0,77,0.00,,,0.06,0.000000,,2013-02-18 14:11:00,
2013-02-18 06:42:00,28.0,21.0,-100.00,South,191,0.0,0.0,75,0.00,,,0.06,0.000000,,2013-02-18 14:42:00,
2013-02-18 06:53:00,28.0,21.0,-100.00,South,191,0.0,0.0,75,0.00,,,0.06,0.000000,,2013-02-18 14:53:00,
2013-02-18 07:01:00,28.0,21.0,-100.00,South,191,0.0,0.0,75,0.00,,,0.06,0.000000,,2013-02-18 15:01:00,
2013-02-18 07:11:00,28.0,21.0,-100.00,South,191,0.0,0.0,75,0.00,,,0.06,0.000000,,2013-02-18 15:11:00,
2013-02-18 07:42:00,27.0,21.0,-100.00,ENE,73,0.0,0.0,79,0.00,,,0.06,11.000000,,2013-02-18 15:42:00,
2013-02-18 07:52:00,27.0,21.0,-100.00,ENE,73,0.0,0.0,79,0.00,,,0.06,11.000000,,2013-02-18 15:52:00,
2013-02-18 08:02:00,27.0,21.0,-100.00,ENE,73,0.0,0.0,79,0.00,,,0.06,11.000000,,2013-02-18 16:02:00,
2013-02-18 08:11:00,27.0,21.0,-100.00,ENE,73,0.0,0.0,79,0.00,,,0.06,11.000000,,2013-02-18 16:11:00,
2013-02-18 08:43:00,30.0,21.0,-100.00,SW,226,0.0,3.0,69,0.00,,,0.06,68.000000,,2013-02-18 16:43:00,
2013-02-18 09:03:00,30.0,21.0,-100.00,SW,226,0.0,3.0,69,0.00,,,0.06,68.000000,,2013-02-18 17:03:00,
2013-02-18 09:11:00,30.0,21.0,-100.00,SW,226,0.0,3.0,69,0.00,,,0.06,68.000000,,2013-02-18 17:11:00,
2013-02-18 09:43:00,35.0,20.0,-100.00,WSW,237,1.0,6.0,55,0.00,,,0.06,394.000000,,2013-02-18 17:43:00,
2013-02-18 09:53:00,35.0,20.0,-100.00,WSW,237,1.0,6.0,55,0.00,,,0.06,394.000000,,2013-02-18 17:53:00,
2013-02-18 10:02:00,35.0,20.0,-100.00,WSW,237,1.0,6.0,55,0.00,,,0.06,394.000000,,2013-02-18 18:02:00,
2013-02-18 10:11:00,35.0,20.0,-100.00,WSW,237,1.0,6.0,55,0.00,,,0.06,394.000000,,2013-02-18 18:11:00,
2013-02-18 10:43:00,37.0,21.0,-100.00,West,264,2.0,6.0,53,0.00,,,0.06,344.000000,,2013-02-18 18:43:00,
2013-02-18 10:52:00,37.0,21.0,-100.00,West,264,2.0,6.0,53,0.00,,,0.06,344.000000,,2013-02-18 18:52:00,
2013-02-18 11:02:00,37.0,21.0,-100.00,West,264,2.0,6.0,53,0.00,,,0.06,344.000000,,2013-02-18 19:02:00,
2013-02-18 11:11:00,37.0,21.0,-100.00,West,264,2.0,6.0,53,0.00,,,0.06,344.000000,,2013-02-18 19:11:00,
2013-02-18 11:43:00,38.0,21.0,-100.00,NE,50,2.0,6.0,50,0.00,,,0.06,267.000000,,2013-02-18 19:43:00,
2013-02-18 11:53:00,38.0,21.0,-100.00,NE,50,2.0,6.0,50,0.00,,,0.06,267.000000,,2013-02-18 19:53:00,
2013-02-18 12:01:00,38.0,21.0,-100.00,NE,50,2.0,6.0,50,0.00,,,0.06,267.000000,,2013-02-18 20:01:00,
2013-02-18 12:42:00,39.0,22.0,-100.00,ESE,104,2.0,9.0,50,0.00,,,0.01,270.000000,,2013-02-18 20:42:00,
2013-02-18 12:53:00,39.0,22.0,-100.00,ESE,104,2.0,9.0,50,0.00,,,0.01,270.000000,,2013-02-18 20:53:00,
2013-02-18 13:02:00,39.0,22.0,-100.00,ESE,104,2.0,9.0,50,0.00,,,0.01,270.000000,,2013-02-18 21:02:00,
2013-02-18 13:11:00,39.0,22.0,-100.00,ESE,104,2.0,9.0,50,0.00,,,0.01,270.000000,,2013-02-18 21:11:00,
2013-02-18 13:43:00,37.0,21.0,-100.00,NE,45,2.0,9.0,52,0.00,,,0.01,168.000000,,2013-02-18 21:43:00,
2013-02-18 13:52:00,37.0,21.0,-100.00,NE,45,2.0,9.0,52,0.00,,,0.01,168.000000,,2013-02-18 21:52:00,
2013-02-18 14:02:00,37.0,21.0,-100.00,NE,45,2.0,9.0,52,0.00,,,0.01,168.000000,,2013-02-18 22:02:00,
2013-02-18 14:11:00,37.0,21.0,-100.00,NE,45,2.0,9.0,52,0.00,,,0.01,168.000000,,2013-02-18 22:11:00,
2013-02-18 14:43:00,36.0,20.0,-100.00,SE,132,2.0,12.0,52,0.00,,,0.01,113.000000,,2013-02-18 22:43:00,
2013-02-18 14:53:00,36.0,20.0,-100.00,SE,132,2.0,12.0,52,0.00,,,0.01,113.000000,,2013-02-18 22:53:00,
2013-02-18 15:02:00,36.0,20.0,-100.00,SE,132,2.0,12.0,52,0.00,,,0.01,113.000000,,2013-02-18 23:02:00,
2013-02-18 15:11:00,36.0,20.0,-100.00,SE,132,2.0,12.0,52,0.00,,,0.01,113.000000,,2013-02-18 23:11:00,
2013-02-18 15:43:00,37.0,21.0,-100.00,NE,49,1.0,11.0,52,0.00,,,0.01,248.000000,,2013-02-18 23:43:00,
2013-02-18 15:53:00,37.0,21.0,-100.00,NE,49,1.0,11.0,52,0.00,,,0.01,248.000000,,2013-02-18 23:53:00,
2013-02-18 16:02:00,37.0,21.0,-100.00,NE,49,1.0,11.0,52,0.00,,,0.01,248.000000,,2013-02-19 00:02:00,
2013-02-18 16:11:00,37.0,21.0,-100.00,NE,49,1.0,11.0,52,0.00,,,0.01,248.000000,,2013-02-19 00:11:00,
2013-02-18 16:44:00,36.0,21.0,-100.00,NE,50,2.0,7.0,53,0.00,,,0.01,141.000000,,2013-02-19 00:44:00,
2013-02-18 16:54:00,36.0,21.0,-100.00,NE,50,2.0,7.0,53,0.00,,,0.01,141.000000,,2013-02-19 00:54:00,
2013-02-18 17:02:00,36.0,21.0,-100.00,NE,50,2.0,7.0,53,0.00,,,0.01,141.000000,,2013-02-19 01:02:00,
2013-02-18 17:12:00,36.0,21.0,-100.00,NE,50,2.0,7.0,53,0.00,,,0.01,141.000000,,2013-02-19 01:12:00,
2013-02-18 17:45:00,33.0,20.0,-100.00,NE,49,0.0,9.0,59,0.00,,,0.00,38.000000,,2013-02-19 01:45:00,
2013-02-18 17:55:00,33.0,20.0,-100.00,NE,49,0.0,9.0,59,0.00,,,0.00,38.000000,,2013-02-19 01:55:00,
2013-02-18 18:02:00,33.0,20.0,-100.00,NE,49,0.0,9.0,59,0.00,,,0.00,38.000000,,2013-02-19 02:02:00,
2013-02-18 18:12:00,33.0,20.0,-100.00,NE,49,0.0,9.0,59,0.00,,,0.00,38.000000,,2013-02-19 02:12:00,
2013-02-18 18:43:00,31.0,21.0,-100.00,ENE,58,0.0,8.0,67,0.00,,,0.00,0.000000,,2013-02-19 02:43:00,
2013-02-18 18:54:00,31.0,21.0,-100.00,ENE,58,0.0,8.0,67,0.00,,,0.00,0.000000,,2013-02-19 02:54:00,
2013-02-18 19:04:00,31.0,21.0,-100.00,ENE,58,0.0,8.0,67,0.00,,,0.00,0.000000,,2013-02-19 03:04:00,
2013-02-18 19:12:00,31.0,21.0,-100.00,ENE,58,0.0,8.0,67,0.00,,,0.00,0.000000,,2013-02-19 03:12:00,
2013-02-18 19:45:00,31.0,21.0,-100.00,NNE,30,0.0,4.0,67,0.00,,,0.00,0.000000,,2013-02-19 03:45:00,
2013-02-18 19:54:00,31.0,21.0,-100.00,NNE,30,0.0,4.0,67,0.00,,,0.00,0.000000,,2013-02-19 03:54:00,
2013-02-18 20:02:00,31.0,21.0,-100.00,NNE,30,0.0,4.0,67,0.00,,,0.00,0.000000,,2013-02-19 04:02:00,
2013-02-18 20:12:00,31.0,21.0,-100.00,NNE,30,0.0,4.0,67,0.00,,,0.00,0.000000,,2013-02-19 04:12:00,
2013-02-18 20:44:00,30.0,22.0,-100.00,NE,44,0.0,8.0,72,0.00,,,0.00,0.000000,,2013-02-19 04:44:00,
2013-02-18 20:54:00,30.0,22.0,-100.00,NE,44,0.0,8.0,72,0.00,,,0.00,0.000000,,2013-02-19 04:54:00,
2013-02-18 21:01:00,30.0,22.0,-100.00,NE,44,0.0,8.0,72,0.00,,,0.00,0.000000,,2013-02-19 05:01:00,
2013-02-18 21:12:00,30.0,22.0,-100.00,NE,44,0.0,8.0,72,0.00,,,0.00,0.000000,,2013-02-19 05:12:00,
2013-02-18 21:43:00,29.0,21.0,-100.00,NNE,30,1.0,3.0,71,0.00,,,0.00,0.000000,,2013-02-19 05:43:00,
2013-02-18 21:52:00,29.0,21.0,-100.00,NNE,30,1.0,3.0,71,0.00,,,0.00,0.000000,,2013-02-19 05:52:00,
2013-02-18 22:02:00,29.0,21.0,-100.00,NNE,30,1.0,3.0,71,0.00,,,0.00,0.000000,,2013-02-19 06:02:00,
2013-02-18 22:11:00,29.0,21.0,-100.00,NNE,30,1.0,3.0,71,0.00,,,0.00,0.000000,,2013-02-19 06:11:00,
2013-02-18 22:42:00,30.0,20.0,-100.00,ENE,64,3.0,6.0,67,0.00,,,0.00,0.000000,,2013-02-19 06:42:00,
2013-02-18 22:52:00,30.0,20.0,-100.00,ENE,64,3.0,6.0,67,0.00,,,0.00,0.000000,,2013-02-19 06:52:00,
2013-02-18 23:01:00,30.0,20.0,-100.00,ENE,64,3.0,6.0,67,0.00,,,0.00,0.000000,,2013-02-19 07:01:00,
2013-02-18 23:11:00,30.0,20.0,-100.00,ENE,64,3.0,6.0,67,0.00,,,0.00,0.000000,,2013-02-19 07:11:00,
2013-02-18 23:42:00,27.0,19.0,-100.00,East,100,0.0,9.0,72,0.00,,,0.00,0.000000,,2013-02-19 07:42:00,
2013-02-18 23:52:00,27.0,19.0,-100.00,East,100,0.0,9.0,72,0.00,,,0.00,0.000000,,2013-02-19 07:52:00,